Time;durP1;ratioP1;P1;durP2;ratioP2;P2;SDS_P1;SDS_P2;PMS_P1;PMS_P2;Temp;Humidity;BMP_temperature;BMP_pressure;BME280_temperature;BME280_humidity;BME280_pressure;Samples;Min_cycle;Max_cycle;Signal;HPM_P1;HPM_P2
2021/06/30 00:01:53;;;;;;;;;18.33;15.00;;;;;16.93;76.02;100909.97;5101202;27;45217;-78
2021/06/30 00:04:19;;;;;;;;;11.67;10.67;;;;;16.92;76.17;100911.84;5082942;27;45264;-78
2021/06/30 00:06:44;;;;;;;;;14.00;11.00;;;;;16.94;76.05;100916.19;5100805;27;45152;-78
2021/06/30 00:09:09;;;;;;;;;14.33;12.33;;;;;16.96;76.28;100919.47;5082284;27;47139;-78
2021/06/30 00:11:35;;;;;;;;;12.00;12.00;;;;;16.87;76.60;100892.88;5082547;27;45286;-78
2021/06/30 00:14:00;;;;;;;;;13.33;12.67;;;;;16.95;76.20;100913.28;5100440;27;45218;-78
2021/06/30 00:16:31;;;;;;;;;16.00;15.33;;;;;16.91;76.13;100904.00;5100974;27;45291;-78
2021/06/30 00:18:58;;;;;;;;;13.33;12.33;;;;;16.90;76.25;100903.19;5083367;27;45421;-78
2021/06/30 00:21:23;;;;;;;;;16.67;16.67;;;;;16.92;76.27;100905.66;5082128;27;46179;-78
2021/06/30 00:23:49;;;;;;;;;17.67;16.33;;;;;16.90;76.31;100900.50;5100958;27;45392;-78
2021/06/30 00:26:14;;;;;;;;;17.33;13.67;;;;;16.94;76.64;100905.44;5100828;27;45569;-78
2021/06/30 00:28:39;;;;;;;;;14.33;14.33;;;;;16.95;76.67;100913.28;5099363;27;48060;-78
2021/06/30 00:31:05;;;;;;;;;16.00;14.67;;;;;16.95;77.04;100905.25;5100361;27;45400;-78
2021/06/30 00:33:30;;;;;;;;;13.00;13.00;;;;;16.94;76.73;100910.81;5100886;27;45280;-78
2021/06/30 00:35:56;;;;;;;;;12.67;12.67;;;;;16.92;77.11;100900.28;5082086;27;46168;-78
2021/06/30 00:38:21;;;;;;;;;18.00;15.33;;;;;16.87;77.50;100902.78;5100520;27;45334;-77
2021/06/30 00:40:46;;;;;;;;;16.00;15.00;;;;;16.84;77.42;100897.81;5100529;27;45280;-77
2021/06/30 00:43:12;;;;;;;;;17.33;15.33;;;;;16.83;77.89;100894.34;5100745;27;45275;-78
2021/06/30 00:45:37;;;;;;;;;15.33;15.33;;;;;16.83;77.64;100896.19;5100540;27;45355;-78
2021/06/30 00:48:03;;;;;;;;;18.67;17.00;;;;;16.80;77.75;100892.06;5100606;27;45298;-78
2021/06/30 00:50:28;;;;;;;;;19.00;16.00;;;;;16.77;77.66;100890.63;5081926;27;45553;-77
2021/06/30 00:52:54;;;;;;;;;17.00;14.00;;;;;16.78;77.93;100900.34;5100433;27;45314;-77
2021/06/30 00:55:19;;;;;;;;;19.00;18.67;;;;;16.75;77.88;100902.63;5082326;27;47152;-80
2021/06/30 00:57:45;;;;;;;;;17.33;16.33;;;;;16.71;78.04;100886.13;5082056;27;48090;-79
2021/06/30 01:00:11;;;;;;;;;18.00;16.00;;;;;16.68;77.75;100883.88;5100259;27;45627;-79
2021/06/30 01:02:36;;;;;;;;;21.33;17.67;;;;;16.67;78.47;100892.94;5100499;27;45353;-80
2021/06/30 01:05:02;;;;;;;;;14.00;14.00;;;;;16.65;78.52;100901.19;5081673;27;46110;-79
2021/06/30 01:07:28;;;;;;;;;17.00;15.33;;;;;16.59;79.46;100895.84;5100134;27;46143;-80
2021/06/30 01:09:53;;;;;;;;;17.33;16.00;;;;;16.53;79.61;100897.53;5100140;27;45339;-80
2021/06/30 01:12:18;;;;;;;;;16.33;15.67;;;;;16.54;78.57;100896.47;5081637;27;45382;-81
2021/06/30 01:14:44;;;;;;;;;17.67;12.67;;;;;16.51;78.71;100894.22;5100073;27;45182;-79
2021/06/30 01:17:09;;;;;;;;;14.00;14.00;;;;;16.54;79.17;100896.47;5100128;27;45321;-80
2021/06/30 01:19:37;;;;;;;;;14.33;13.67;;;;;16.56;79.19;100898.97;5099782;27;45511;-80
2021/06/30 01:22:05;;;;;;;;;13.00;13.00;;;;;16.52;79.28;100891.31;5099921;27;45289;-80
2021/06/30 01:24:30;;;;;;;;;15.33;14.00;;;;;16.51;79.25;100881.63;5100059;27;45452;-81
2021/06/30 01:26:55;;;;;;;;;19.00;15.33;;;;;16.53;78.77;100894.84;5083953;27;47339;-84
2021/06/30 01:29:22;;;;;;;;;13.00;13.00;;;;;16.48;80.04;100889.28;5103330;27;45224;-81
2021/06/30 01:31:51;;;;;;;;;14.67;13.67;;;;;16.45;80.21;100889.69;5064930;28;45342;-80
2021/06/30 01:34:17;;;;;;;;;16.00;16.00;;;;;16.42;80.18;100893.63;5082772;28;45436;-79
2021/06/30 01:36:54;;;;;;;;;14.33;14.33;;;;;16.38;80.29;100890.53;5082662;28;45320;-81
2021/06/30 01:39:23;;;;;;;;;11.33;11.00;;;;;16.38;79.66;100887.03;5083124;28;45314;-81
2021/06/30 01:41:49;;;;;;;;;11.33;11.33;;;;;16.40;79.63;100890.31;5064766;28;45359;-81
2021/06/30 01:44:15;;;;;;;;;11.33;11.33;;;;;16.42;80.31;100885.56;5083022;28;45490;-81
2021/06/30 01:46:42;;;;;;;;;13.67;13.00;;;;;16.41;79.81;100890.09;5082842;28;45400;-80
2021/06/30 01:49:08;;;;;;;;;10.67;9.67;;;;;16.40;79.60;100888.47;5082815;28;45360;-81
2021/06/30 01:51:34;;;;;;;;;12.00;11.33;;;;;16.43;79.20;100892.56;5082739;28;45311;-81
2021/06/30 01:54:01;;;;;;;;;12.33;10.33;;;;;16.45;79.39;100885.16;5082530;28;45357;-81
2021/06/30 01:56:28;;;;;;;;;8.00;8.00;;;;;16.47;79.34;100893.00;5082738;28;45407;-80
2021/06/30 01:59:02;;;;;;;;;8.67;7.67;;;;;16.39;79.82;100891.34;5064524;28;45414;-80
2021/06/30 02:01:28;;;;;;;;;6.33;6.33;;;;;16.40;79.85;100901.03;5064401;28;45479;-81
2021/06/30 02:03:56;;;;;;;;;7.33;7.33;;;;;16.37;79.19;100901.50;5082547;28;45544;-80
2021/06/30 02:06:22;;;;;;;;;7.00;7.00;;;;;16.33;79.73;100894.88;5082284;28;45359;-79
2021/06/30 02:08:48;;;;;;;;;9.67;9.67;;;;;16.31;79.36;100888.91;5082420;28;45339;-79
2021/06/30 02:11:14;;;;;;;;;12.00;9.67;;;;;16.30;79.81;100895.28;5064178;28;45297;-78
2021/06/30 02:13:39;;;;;;;;;12.00;12.00;;;;;16.31;79.14;100897.75;5064024;28;46087;-78
2021/06/30 02:16:05;;;;;;;;;8.67;8.67;;;;;16.29;79.57;100897.16;5082320;28;45871;-78
2021/06/30 02:18:31;;;;;;;;;11.67;9.00;;;;;16.27;79.29;100899.22;5092317;27;45292;-77
2021/06/30 02:20:56;;;;;;;;;9.00;8.67;;;;;16.24;79.45;100892.41;5102790;27;45500;-78
2021/06/30 02:23:22;;;;;;;;;9.00;9.00;;;;;16.28;80.10;100898.19;5102664;27;45432;-78
2021/06/30 02:25:48;;;;;;;;;9.67;8.00;;;;;16.31;79.77;100900.44;5102829;27;45222;-78
2021/06/30 02:28:14;;;;;;;;;9.67;9.00;;;;;16.31;79.12;100905.81;5102697;27;45469;-78
2021/06/30 02:30:39;;;;;;;;;11.33;9.00;;;;;16.30;79.71;100904.16;5084106;27;45323;-78
2021/06/30 02:33:05;;;;;;;;;9.00;8.67;;;;;16.28;80.16;100912.41;5102845;27;45233;-78
2021/06/30 02:35:31;;;;;;;;;8.00;8.00;;;;;16.22;79.77;100907.88;5102409;27;46197;-78
2021/06/30 02:37:59;;;;;;;;;8.33;8.00;;;;;16.25;79.63;100906.66;5101999;27;45395;-77
2021/06/30 02:40:25;;;;;;;;;9.00;7.00;;;;;16.24;79.23;100905.81;5084189;27;45387;-78
2021/06/30 02:42:52;;;;;;;;;8.67;7.67;;;;;16.28;79.25;100916.94;5102545;27;45290;-78
2021/06/30 02:45:19;;;;;;;;;8.00;8.00;;;;;16.25;79.26;100909.34;5102369;27;45768;-81
2021/06/30 02:47:47;;;;;;;;;8.00;8.00;;;;;16.23;79.51;100911.41;5083878;27;45874;-78
2021/06/30 02:50:16;;;;;;;;;6.33;6.00;;;;;16.24;79.20;100910.34;5083899;27;45388;-78
2021/06/30 02:52:46;;;;;;;;;10.00;8.33;;;;;16.22;79.73;100913.25;5083617;27;46454;-79
2021/06/30 02:55:12;;;;;;;;;5.00;5.00;;;;;16.09;79.77;100903.38;5102349;27;46200;-78
2021/06/30 02:57:38;;;;;;;;;7.67;7.00;;;;;16.15;80.48;100912.44;5102295;27;45264;-79
2021/06/30 03:00:16;;;;;;;;;9.00;7.67;;;;;16.17;79.63;100909.53;5084054;27;45367;-78
2021/06/30 03:02:41;;;;;;;;;8.33;7.00;;;;;16.14;79.06;100914.28;5083703;27;47144;-78
2021/06/30 03:05:08;;;;;;;;;10.00;6.33;;;;;16.15;79.32;100918.63;5101866;27;45837;-79
2021/06/30 03:07:33;;;;;;;;;9.67;9.67;;;;;16.11;78.79;100916.56;5102101;27;45228;-79
2021/06/30 03:09:59;;;;;;;;;10.67;9.00;;;;;16.03;79.56;100912.22;5083706;27;45265;-79
2021/06/30 03:12:25;;;;;;;;;9.33;7.00;;;;;16.08;78.88;100923.16;5102079;27;45477;-79
2021/06/30 03:14:50;;;;;;;;;13.67;10.00;;;;;16.05;79.15;100928.94;5101988;27;45466;-79
2021/06/30 03:17:16;;;;;;;;;11.67;11.00;;;;;16.02;78.78;100921.31;5102015;27;45393;-79
2021/06/30 03:19:41;;;;;;;;;11.67;11.67;;;;;16.00;78.77;100923.38;5083546;27;45308;-78
2021/06/30 03:22:07;;;;;;;;;12.00;10.33;;;;;15.94;79.29;100916.94;5101464;27;45403;-80
2021/06/30 03:24:32;;;;;;;;;10.33;9.00;;;;;15.97;79.40;100945.22;5101949;27;45325;-80
2021/06/30 03:26:57;;;;;;;;;11.00;10.33;;;;;15.96;79.31;100936.38;5101910;27;45307;-79
2021/06/30 03:29:23;;;;;;;;;16.67;14.00;;;;;15.94;78.90;100937.56;5101581;27;45926;-81
2021/06/30 03:31:48;;;;;;;;;10.67;9.67;;;;;15.88;79.00;100933.84;5101546;27;45360;-79
2021/06/30 03:34:13;;;;;;;;;12.33;11.67;;;;;15.84;79.42;100940.66;5101563;27;45984;-80
2021/06/30 03:36:39;;;;;;;;;13.67;11.00;;;;;15.75;79.11;100926.63;5082924;27;45926;-80
2021/06/30 03:39:04;;;;;;;;;12.67;11.00;;;;;15.81;79.73;100944.56;5101811;27;45284;-79
2021/06/30 03:41:30;;;;;;;;;10.67;10.00;;;;;15.79;78.87;100935.91;5101460;27;45395;-79
2021/06/30 03:43:55;;;;;;;;;13.67;10.67;;;;;15.80;79.63;100942.09;5101443;27;45610;-79
2021/06/30 03:46:21;;;;;;;;;11.33;10.33;;;;;15.79;79.07;100943.94;5101498;27;45327;-79
2021/06/30 03:48:46;;;;;;;;;11.00;9.67;;;;;15.76;79.37;100941.66;5082288;27;45276;-79
2021/06/30 03:51:11;;;;;;;;;12.67;10.00;;;;;15.75;78.91;100948.88;5101083;27;45494;-78
2021/06/30 03:53:37;;;;;;;;;14.67;14.00;;;;;15.73;79.04;100950.94;5101143;27;45996;-78
2021/06/30 03:56:02;;;;;;;;;15.00;11.67;;;;;15.71;79.23;100944.16;5082996;27;45249;-79
2021/06/30 03:58:28;;;;;;;;;18.33;17.33;;;;;15.72;78.88;100945.78;5101387;27;45341;-78
2021/06/30 04:00:54;;;;;;;;;20.00;18.33;;;;;15.72;79.13;100951.97;5082754;27;46031;-79
2021/06/30 04:03:19;;;;;;;;;20.33;17.33;;;;;15.65;78.55;100935.88;5101095;27;46318;-79
2021/06/30 04:05:45;;;;;;;;;21.00;19.00;;;;;15.70;78.92;100940.63;5101118;27;45274;-79
2021/06/30 04:08:12;;;;;;;;;18.00;16.33;;;;;15.71;78.85;100946.81;5101225;27;45556;-79
2021/06/30 04:10:37;;;;;;;;;19.67;19.00;;;;;15.65;78.46;100935.03;5100982;27;45392;-79
2021/06/30 04:13:03;;;;;;;;;22.00;20.33;;;;;15.69;79.30;100943.50;5100306;27;45411;-79
2021/06/30 04:15:29;;;;;;;;;15.33;15.33;;;;;15.69;78.67;100935.47;5082535;27;45310;-78
2021/06/30 04:17:57;;;;;;;;;24.33;21.00;;;;;15.65;78.87;100943.09;5100959;27;45317;-78
2021/06/30 04:20:23;;;;;;;;;20.67;18.00;;;;;15.62;78.75;100943.47;5100569;27;45475;-79
2021/06/30 04:22:48;;;;;;;;;16.33;15.00;;;;;15.61;79.02;100950.72;5100682;27;46080;-79
2021/06/30 04:25:14;;;;;;;;;20.67;19.33;;;;;15.57;79.38;100946.78;5082575;27;45288;-79
2021/06/30 04:27:39;;;;;;;;;16.00;16.00;;;;;15.53;79.26;100949.03;5101105;27;45426;-78
2021/06/30 04:30:07;;;;;;;;;20.33;18.67;;;;;15.52;79.43;100949.25;5100866;27;45392;-77
2021/06/30 04:32:32;;;;;;;;;18.00;16.67;;;;;15.58;79.49;100952.97;5082053;27;47197;-78
2021/06/30 04:34:58;;;;;;;;;20.00;18.33;;;;;15.60;79.30;100953.59;5100508;27;45641;-77
2021/06/30 04:37:23;;;;;;;;;23.67;20.00;;;;;15.58;79.14;100950.28;5082358;27;45424;-77
2021/06/30 04:39:49;;;;;;;;;16.67;13.67;;;;;15.53;79.17;100946.38;5082145;27;46349;-78
2021/06/30 04:42:14;;;;;;;;;20.67;18.33;;;;;15.60;79.30;100951.75;5082278;27;48236;-78
2021/06/30 04:44:39;;;;;;;;;15.33;14.00;;;;;15.59;78.97;100957.31;5100461;27;45371;-78
2021/06/30 04:47:05;;;;;;;;;24.67;18.00;;;;;15.58;79.12;100956.47;5100713;27;45488;-78
2021/06/30 04:49:30;;;;;;;;;19.33;18.33;;;;;15.56;78.76;100957.72;5100587;27;45279;-76
2021/06/30 04:51:55;;;;;;;;;23.33;18.33;;;;;15.52;78.91;100952.75;5100174;27;45350;-76
2021/06/30 04:54:22;;;;;;;;;19.33;19.00;;;;;15.55;79.38;100961.41;5100259;27;45316;-77
2021/06/30 04:56:48;;;;;;;;;14.00;14.00;;;;;15.52;79.42;100958.13;5100680;27;45267;-78
2021/06/30 04:59:13;;;;;;;;;19.67;19.67;;;;;15.54;79.55;100960.59;5081702;27;46418;-78
2021/06/30 05:01:39;;;;;;;;;18.00;17.00;;;;;15.55;80.09;100954.19;5100045;27;45243;-80
2021/06/30 05:04:04;;;;;;;;;27.33;23.33;;;;;15.60;79.69;100956.28;5100376;27;45172;-78
2021/06/30 05:06:30;;;;;;;;;17.00;14.67;;;;;15.62;79.66;100957.72;5100159;27;45290;-77
2021/06/30 05:08:55;;;;;;;;;18.00;16.00;;;;;15.62;79.93;100959.56;5100303;27;45328;-77
2021/06/30 05:11:20;;;;;;;;;23.00;20.33;;;;;15.56;79.33;100958.53;5100068;27;45318;-79
2021/06/30 05:13:46;;;;;;;;;16.67;16.00;;;;;15.61;79.59;100965.94;5100333;27;45356;-77
2021/06/30 05:16:11;;;;;;;;;17.33;17.00;;;;;15.57;79.44;100962.03;5100228;27;45487;-78
2021/06/30 05:18:36;;;;;;;;;15.33;15.00;;;;;15.58;79.21;100961.00;5100084;27;45347;-78
2021/06/30 05:21:02;;;;;;;;;15.67;14.67;;;;;15.59;79.26;100971.50;5081308;27;48090;-77
2021/06/30 05:23:28;;;;;;;;;18.00;17.00;;;;;15.55;79.51;100962.22;5099912;27;45351;-78
2021/06/30 05:25:54;;;;;;;;;15.67;15.00;;;;;15.57;79.43;100964.72;5100217;27;45415;-77
2021/06/30 05:28:19;;;;;;;;;15.00;14.00;;;;;15.61;79.83;100977.50;5081632;27;46637;-77
2021/06/30 05:30:44;;;;;;;;;16.00;15.67;;;;;15.58;79.29;100977.06;5099791;27;46071;-78
2021/06/30 05:33:11;;;;;;;;;15.00;13.67;;;;;15.59;79.33;100978.75;5100320;27;45330;-78
2021/06/30 05:35:36;;;;;;;;;14.33;14.00;;;;;15.56;79.42;100974.59;5099969;27;45442;-78
2021/06/30 05:38:02;;;;;;;;;12.00;11.33;;;;;15.56;79.37;100987.19;5099860;27;45341;-78
2021/06/30 05:40:28;;;;;;;;;12.00;11.00;;;;;15.56;79.43;100987.97;5099730;27;45309;-77
2021/06/30 05:42:55;;;;;;;;;14.67;13.00;;;;;15.58;79.78;100991.28;5099995;27;45261;-78
2021/06/30 05:45:21;;;;;;;;;14.33;14.00;;;;;15.58;79.62;100985.09;5100041;27;45392;-80
2021/06/30 05:47:46;;;;;;;;;18.67;18.00;;;;;15.49;80.19;100984.47;5081342;27;46249;-79
2021/06/30 05:50:14;;;;;;;;;15.33;13.33;;;;;15.46;79.54;100990.22;5081125;27;47122;-78
2021/06/30 05:52:39;;;;;;;;;8.67;8.67;;;;;15.38;79.92;100989.38;5099578;27;45291;-79
2021/06/30 05:55:06;;;;;;;;;10.67;10.67;;;;;15.38;79.66;100977.81;5081297;27;45245;-78
2021/06/30 05:57:32;;;;;;;;;9.00;9.00;;;;;15.33;80.16;100975.78;5099763;27;45431;-79
2021/06/30 05:59:57;;;;;;;;;9.00;8.33;;;;;15.37;80.33;100992.25;5099534;27;46296;-78
2021/06/30 06:02:23;;;;;;;;;13.00;13.00;;;;;15.35;80.50;100992.44;5099600;27;45372;-77
2021/06/30 06:04:48;;;;;;;;;10.67;9.00;;;;;15.39;79.90;100991.00;5099551;27;45317;-77
2021/06/30 06:07:14;;;;;;;;;8.67;7.67;;;;;15.33;79.60;100980.28;5099377;27;45259;-77
2021/06/30 06:09:39;;;;;;;;;9.67;8.33;;;;;15.37;80.68;100987.72;5099633;27;45248;-78
2021/06/30 06:12:05;;;;;;;;;6.33;6.00;;;;;15.43;80.42;100999.50;5100653;27;45305;-78
2021/06/30 06:14:31;;;;;;;;;10.67;10.67;;;;;15.41;80.09;100998.84;5084915;27;45366;-77
2021/06/30 06:16:56;;;;;;;;;8.00;8.00;;;;;15.36;79.77;101002.13;5102884;27;45376;-78
2021/06/30 06:19:22;;;;;;;;;12.33;10.00;;;;;15.37;80.00;101013.66;5084294;27;48195;-79
2021/06/30 06:21:48;;;;;;;;;6.67;6.00;;;;;15.37;79.81;101002.97;5102591;27;45354;-79
2021/06/30 06:24:14;;;;;;;;;7.33;6.33;;;;;15.33;79.70;100997.19;5103032;27;45366;-81
2021/06/30 06:26:48;;;;;;;;;6.67;5.33;;;;;15.37;79.65;101017.19;5103025;27;45288;-78
2021/06/30 06:29:13;;;;;;;;;7.00;7.00;;;;;15.30;79.53;101015.50;5102784;27;45463;-81
2021/06/30 06:31:40;;;;;;;;;6.00;6.00;;;;;15.23;79.41;101007.44;5082616;27;45308;-79
2021/06/30 06:34:05;;;;;;;;;5.00;5.00;;;;;15.21;79.79;101004.97;5082456;28;45163;-79
2021/06/30 06:36:31;;;;;;;;;8.33;8.33;;;;;15.19;79.43;101011.53;5063617;28;45397;-78
2021/06/30 06:38:56;;;;;;;;;6.67;6.67;;;;;15.21;79.36;101014.84;5064070;28;46974;-78
2021/06/30 06:41:22;;;;;;;;;7.33;7.33;;;;;15.21;79.99;101021.03;5082225;28;45264;-77
2021/06/30 06:43:47;;;;;;;;;7.67;7.67;;;;;15.20;79.54;101019.38;5082413;28;45228;-78
2021/06/30 06:46:13;;;;;;;;;6.67;6.00;;;;;15.21;79.54;101026.38;5082163;28;46065;-77
2021/06/30 06:48:38;;;;;;;;;9.00;9.00;;;;;15.22;79.41;101020.00;5063693;28;47207;-78
2021/06/30 06:51:04;;;;;;;;;8.00;8.00;;;;;15.24;79.64;101031.31;5081993;28;45319;-78
2021/06/30 06:53:30;;;;;;;;;7.67;7.33;;;;;15.25;79.66;101019.59;5081957;28;45473;-78
2021/06/30 06:55:58;;;;;;;;;8.00;8.00;;;;;15.33;79.89;101039.19;5081964;28;45332;-78
2021/06/30 06:58:23;;;;;;;;;7.33;7.33;;;;;15.37;79.79;101035.09;5081912;28;46560;-78
2021/06/30 07:00:49;;;;;;;;;10.33;8.33;;;;;15.36;79.82;101033.47;5081896;28;45347;-78
2021/06/30 07:03:14;;;;;;;;;8.33;7.33;;;;;15.42;79.47;101038.03;5063767;28;45590;-78
2021/06/30 07:05:40;;;;;;;;;9.67;9.67;;;;;15.46;79.52;101035.75;5081720;28;45569;-77
2021/06/30 07:08:06;;;;;;;;;10.33;8.33;;;;;15.48;79.30;101026.47;5063299;28;48603;-78
2021/06/30 07:10:31;;;;;;;;;9.33;7.67;;;;;15.53;79.43;101037.44;5081744;28;45217;-77
2021/06/30 07:12:57;;;;;;;;;10.33;10.33;;;;;15.58;79.85;101042.19;5082122;28;45226;-77
2021/06/30 07:15:22;;;;;;;;;12.67;11.00;;;;;15.62;79.70;101037.25;5081786;28;45422;-77
2021/06/30 07:17:47;;;;;;;;;9.67;7.33;;;;;15.66;79.98;101038.53;5085290;27;45184;-77
2021/06/30 07:20:13;;;;;;;;;9.33;9.33;;;;;15.68;79.64;101041.00;5101291;27;45337;-78
2021/06/30 07:22:38;;;;;;;;;7.00;7.00;;;;;15.68;79.56;101043.69;5102080;27;45230;-78
2021/06/30 07:25:04;;;;;;;;;10.33;9.00;;;;;15.68;78.85;101041.81;5101891;27;45235;-77
2021/06/30 07:27:29;;;;;;;;;7.00;7.00;;;;;15.64;78.10;101056.63;5102139;27;46308;-77
2021/06/30 07:29:55;;;;;;;;;8.67;8.67;;;;;15.64;78.42;101053.97;5098600;27;45651;-77
2021/06/30 07:32:20;;;;;;;;;8.33;7.33;;;;;15.61;77.98;101051.69;5101828;27;45316;-77
2021/06/30 07:34:46;;;;;;;;;7.67;7.67;;;;;15.55;78.30;101049.78;5101642;27;45299;-78
2021/06/30 07:37:11;;;;;;;;;8.00;8.00;;;;;15.57;78.37;101055.78;5101582;27;45355;-78
2021/06/30 07:39:36;;;;;;;;;10.33;8.67;;;;;15.61;78.31;101054.34;5101856;27;45401;-78
2021/06/30 07:42:02;;;;;;;;;7.00;7.00;;;;;15.60;77.79;101050.88;5101841;27;45247;-77
2021/06/30 07:44:29;;;;;;;;;7.33;7.33;;;;;15.63;78.20;101055.00;5101428;27;45479;-77
2021/06/30 07:46:54;;;;;;;;;8.00;8.00;;;;;15.63;77.76;101053.13;5083264;27;47843;-76
2021/06/30 07:49:20;;;;;;;;;8.00;8.00;;;;;15.73;78.58;101051.94;5101654;27;45302;-77
2021/06/30 07:51:45;;;;;;;;;16.00;15.33;;;;;15.79;77.15;101059.16;5101431;27;45285;-75
2021/06/30 07:54:11;;;;;;;;;15.67;14.67;;;;;15.83;78.01;101057.72;5082905;27;45361;-76
2021/06/30 07:56:36;;;;;;;;;10.00;10.00;;;;;15.88;77.18;101051.75;5100225;27;47065;-76
2021/06/30 07:59:12;;;;;;;;;12.67;11.67;;;;;15.88;77.14;101051.75;5083273;27;45319;-76
2021/06/30 08:01:39;;;;;;;;;9.67;9.67;;;;;15.96;77.45;101065.03;5082565;27;45294;-76
2021/06/30 08:04:06;;;;;;;;;10.33;9.00;;;;;15.98;76.57;101068.31;5082903;27;45584;-76
2021/06/30 08:06:32;;;;;;;;;11.33;11.00;;;;;15.99;77.51;101061.94;5100939;27;46404;-76
2021/06/30 08:08:58;;;;;;;;;10.33;10.33;;;;;16.09;78.11;101063.38;5101174;27;45304;-78
2021/06/30 08:11:24;;;;;;;;;11.00;10.67;;;;;16.15;77.39;101063.41;5101282;27;45337;-77
2021/06/30 08:13:53;;;;;;;;;10.67;9.67;;;;;16.20;76.97;101065.50;5101152;27;45254;-77
2021/06/30 08:16:21;;;;;;;;;10.67;9.33;;;;;16.20;77.20;101053.94;5082870;27;45512;-77
2021/06/30 08:18:47;;;;;;;;;11.00;9.00;;;;;16.26;77.71;101058.47;5100883;27;45299;-76
2021/06/30 08:21:16;;;;;;;;;9.00;9.00;;;;;16.36;76.87;101063.44;5082687;27;45338;-77
2021/06/30 08:23:42;;;;;;;;;9.00;9.00;;;;;16.39;76.46;101066.53;5100996;27;45323;-78
2021/06/30 08:26:08;;;;;;;;;8.00;8.00;;;;;16.40;76.97;101056.63;5100727;27;46111;-77
2021/06/30 08:28:35;;;;;;;;;8.67;7.00;;;;;16.51;76.57;101063.22;5101043;27;45228;-77
2021/06/30 08:31:00;;;;;;;;;5.00;5.00;;;;;16.57;77.04;101061.56;5100745;27;45611;-78
2021/06/30 08:33:25;;;;;;;;;12.67;10.00;;;;;16.59;74.87;101059.53;5100843;27;45262;-79
2021/06/30 08:35:51;;;;;;;;;13.00;12.00;;;;;16.61;75.78;101071.69;5099332;27;45319;-83
2021/06/30 08:38:16;;;;;;;;;11.33;11.00;;;;;16.59;75.65;101068.41;5100792;27;45267;-79
2021/06/30 08:40:42;;;;;;;;;10.67;10.67;;;;;16.58;75.15;101066.72;5100852;27;45320;-79
2021/06/30 08:43:07;;;;;;;;;9.00;9.00;;;;;16.63;75.19;101063.44;5100709;27;45504;-79
2021/06/30 08:45:35;;;;;;;;;11.33;9.67;;;;;16.69;74.83;101067.13;5100744;27;45299;-78
2021/06/30 08:48:01;;;;;;;;;10.00;10.00;;;;;16.71;74.86;101065.94;5100893;27;45366;-79
2021/06/30 08:50:27;;;;;;;;;10.00;10.00;;;;;16.71;75.33;101070.44;5100368;27;45336;-79
2021/06/30 08:52:54;;;;;;;;;14.33;11.00;;;;;16.75;73.69;101060.94;5081954;27;46990;-79
2021/06/30 08:55:20;;;;;;;;;8.67;8.00;;;;;16.72;72.95;101066.72;5100093;27;45306;-79
2021/06/30 08:57:49;;;;;;;;;10.33;10.33;;;;;16.67;73.97;101064.66;5100395;27;45342;-80
2021/06/30 09:00:16;;;;;;;;;10.67;10.00;;;;;16.76;74.40;101062.63;5081825;27;45258;-80
2021/06/30 09:02:43;;;;;;;;;12.00;12.00;;;;;16.76;73.70;101052.69;5099644;27;45534;-79
2021/06/30 09:07:40;;;;;;;;;11.67;11.67;;;;;17.02;74.76;101055.53;5100135;27;45270;-79
2021/06/30 09:10:07;;;;;;;;;13.00;11.33;;;;;17.18;74.12;101059.66;5081928;27;45242;-81
2021/06/30 09:12:39;;;;;;;;;11.00;11.00;;;;;17.33;74.49;101056.72;5099860;27;45238;-79
2021/06/30 09:15:17;;;;;;;;;11.67;11.67;;;;;17.44;73.62;101047.19;5100211;27;45335;-82
2021/06/30 09:17:44;;;;;;;;;13.33;10.33;;;;;17.59;71.65;101049.59;5081753;27;45313;-80
2021/06/30 09:20:10;;;;;;;;;14.00;12.67;;;;;17.62;71.35;101056.41;5100225;27;45362;-80
2021/06/30 09:22:52;;;;;;;;;11.00;9.00;;;;;17.79;71.41;101064.81;5081544;27;47446;-78
2021/06/30 09:25:41;;;;;;;;;8.33;8.33;;;;;17.86;69.12;101062.06;5100298;27;45240;-81
2021/06/30 09:28:16;;;;;;;;;10.00;10.00;;;;;17.92;68.38;101062.06;5100026;27;45271;-83
2021/06/30 09:31:00;;;;;;;;;10.00;10.00;;;;;17.99;70.23;101071.94;5099679;27;45375;-81
2021/06/30 09:33:44;;;;;;;;;12.00;12.00;;;;;18.03;69.52;101071.31;5099712;27;45543;-80
2021/06/30 09:36:12;;;;;;;;;13.00;10.67;;;;;18.11;70.44;101074.81;5099554;27;45449;-81
2021/06/30 09:38:38;;;;;;;;;9.67;9.67;;;;;18.21;69.08;101077.00;5099988;27;45325;-82
2021/06/30 09:41:04;;;;;;;;;13.67;11.00;;;;;18.13;69.16;101078.09;5081669;27;45356;-80
2021/06/30 09:43:32;;;;;;;;;11.00;11.00;;;;;18.08;68.53;101085.97;5100053;27;45244;-80
2021/06/30 09:46:15;;;;;;;;;16.33;14.00;;;;;18.09;67.76;101085.75;5081167;27;47630;-80
2021/06/30 09:48:41;;;;;;;;;13.00;13.00;;;;;18.05;68.50;101074.59;5084684;27;46042;-81
2021/06/30 09:51:17;;;;;;;;;9.00;9.00;;;;;18.12;68.93;101079.13;5102951;27;45471;-80
2021/06/30 09:53:42;;;;;;;;;12.00;12.00;;;;;18.12;67.65;101079.13;5103322;27;45456;-81
2021/06/30 09:56:38;;;;;;;;;13.00;13.00;;;;;18.12;68.49;101087.19;5084851;27;47909;-80
2021/06/30 09:59:14;;;;;;;;;15.67;13.00;;;;;18.18;69.14;101086.34;5085142;27;45248;-85
2021/06/30 10:01:44;;;;;;;;;14.67;12.00;;;;;18.19;70.15;101071.03;5103421;27;45303;-81
2021/06/30 10:04:21;;;;;;;;;14.33;13.67;;;;;18.32;68.50;101087.09;5102741;27;45396;-82
2021/06/30 10:06:47;;;;;;;;;11.67;10.33;;;;;18.38;68.49;101088.06;5102850;27;45263;-81
2021/06/30 10:09:13;;;;;;;;;15.00;14.67;;;;;18.40;67.51;101085.97;5103273;27;45259;-81
2021/06/30 10:11:39;;;;;;;;;13.33;11.00;;;;;18.43;67.86;101085.53;5103479;27;45164;-80
2021/06/30 10:14:04;;;;;;;;;14.67;13.00;;;;;18.52;69.14;101081.53;5103044;27;45272;-83
2021/06/30 10:16:29;;;;;;;;;13.00;12.00;;;;;18.60;66.94;101085.84;5103140;27;45200;-81
2021/06/30 10:18:59;;;;;;;;;13.67;13.67;;;;;18.71;67.41;101095.06;5102910;27;45472;-80
2021/06/30 10:21:27;;;;;;;;;13.00;12.00;;;;;18.78;67.56;101085.06;5102916;27;45287;-79
2021/06/30 10:23:53;;;;;;;;;12.33;11.33;;;;;18.87;68.20;101093.69;5084575;27;47454;-80
2021/06/30 10:26:20;;;;;;;;;15.33;15.00;;;;;18.87;68.01;101095.53;5102820;27;45256;-80
2021/06/30 10:28:49;;;;;;;;;13.67;13.00;;;;;18.83;67.06;101089.78;5102926;27;45512;-80
2021/06/30 10:31:14;;;;;;;;;12.67;12.67;;;;;18.79;67.84;101092.09;5102571;27;45399;-79
2021/06/30 10:33:41;;;;;;;;;14.00;14.00;;;;;18.84;67.39;101095.97;5084274;27;45982;-80
2021/06/30 10:36:09;;;;;;;;;10.67;10.00;;;;;18.84;67.27;101102.19;5102340;27;46153;-79
2021/06/30 10:38:48;;;;;;;;;15.67;15.67;;;;;18.86;67.66;101093.91;5102840;27;45296;-78
2021/06/30 10:41:35;;;;;;;;;14.67;12.00;;;;;18.88;67.21;101095.31;5102670;27;45284;-79
2021/06/30 10:44:09;;;;;;;;;14.00;14.00;;;;;18.77;66.91;101075.31;5102532;27;45567;-78
2021/06/30 10:46:35;;;;;;;;;11.67;11.67;;;;;18.80;67.01;101088.34;5102230;27;45354;-80
2021/06/30 10:49:20;;;;;;;;;14.67;14.67;;;;;18.79;67.39;101080.47;5102659;27;45302;-80
2021/06/30 10:51:54;;;;;;;;;12.33;10.67;;;;;18.68;64.54;101088.22;5102262;27;45239;-78
2021/06/30 10:54:31;;;;;;;;;10.67;10.67;;;;;18.55;65.32;101094.56;5102227;27;45307;-80
2021/06/30 10:57:21;;;;;;;;;12.33;12.33;;;;;18.38;66.04;101098.84;5102430;27;46073;-79
2021/06/30 11:00:12;;;;;;;;;12.33;11.67;;;;;18.28;66.50;101097.44;5093102;27;45343;-80
2021/06/30 11:02:38;;;;;;;;;10.00;10.00;;;;;18.31;66.78;101104.25;5075548;27;45571;-78
2021/06/30 11:05:12;;;;;;;;;16.00;14.00;;;;;18.45;67.35;101102.31;5083517;27;46108;-78
2021/06/30 11:07:38;;;;;;;;;14.67;14.33;;;;;18.54;66.32;101092.94;5101744;27;46136;-77
2021/06/30 11:10:15;;;;;;;;;13.00;12.00;;;;;18.60;66.63;101101.16;5102287;27;45286;-77
2021/06/30 11:12:53;;;;;;;;;11.00;11.00;;;;;18.59;65.62;101102.19;5102131;27;45430;-79
2021/06/30 11:15:36;;;;;;;;;15.00;13.00;;;;;18.57;66.06;101098.91;5083552;27;46793;-80
2021/06/30 11:18:04;;;;;;;;;12.33;12.33;;;;;18.60;66.10;101098.47;5101009;27;46181;-79